createdAt,value
2023-11-28T00:01:50.322Z,-3.30
2023-11-28T00:04:17.922Z,-3.30
2023-11-28T00:06:45.161Z,-3.20
2023-11-28T00:09:12.465Z,-3.20
2023-11-28T00:11:39.802Z,-3.20
2023-11-28T00:14:07.178Z,-3.20
2023-11-28T00:16:34.467Z,-3.30
2023-11-28T00:19:01.894Z,-3.30
2023-11-28T00:21:29.184Z,-3.30
2023-11-28T00:23:56.548Z,-3.20
2023-11-28T00:26:23.684Z,-3.10
2023-11-28T00:28:51.383Z,-2.90
2023-11-28T00:31:18.715Z,-2.80
2023-11-28T00:33:46.720Z,-2.90
2023-11-28T00:36:18.193Z,-3.10
2023-11-28T00:38:45.510Z,-3.20
2023-11-28T00:41:13.431Z,-3.20
2023-11-28T00:43:40.690Z,-3.30
2023-11-28T00:46:09.440Z,-3.10
2023-11-28T00:48:37.069Z,-2.90
2023-11-28T00:51:06.949Z,-2.90
2023-11-28T00:53:34.572Z,-3.00
2023-11-28T00:56:01.887Z,-3.10
2023-11-28T00:58:29.609Z,-3.10
2023-11-28T01:00:57.306Z,-3.30
2023-11-28T01:03:24.959Z,-3.30
2023-11-28T01:05:52.451Z,-3.30
2023-11-28T01:08:19.845Z,-3.20
2023-11-28T01:10:47.404Z,-3.20
2023-11-28T01:13:14.730Z,-3.30
2023-11-28T01:15:42.470Z,-3.20
2023-11-28T01:18:09.837Z,-3.30
2023-11-28T01:20:37.221Z,-3.20
2023-11-28T01:23:05.155Z,-3.30
2023-11-28T01:25:32.754Z,-3.30
2023-11-28T01:28:00.186Z,-3.20
2023-11-28T01:30:27.518Z,-3.20
2023-11-28T01:32:55.345Z,-3.20
2023-11-28T01:35:22.936Z,-3.20
2023-11-28T01:37:50.324Z,-3.30
2023-11-28T01:40:18.309Z,-3.10
2023-11-28T01:42:48.465Z,-3.00
2023-11-28T01:45:16.437Z,-2.90
2023-11-28T01:47:44.013Z,-2.90
2023-11-28T01:50:11.791Z,-3.00
2023-11-28T01:52:40.174Z,-3.10
2023-11-28T01:55:08.317Z,-3.20
2023-11-28T01:57:35.804Z,-3.20
2023-11-28T02:00:05.379Z,-3.20
2023-11-28T02:02:33.901Z,-3.20
2023-11-28T02:05:01.450Z,-3.20
2023-11-28T02:07:29.237Z,-3.20
2023-11-28T02:09:57.832Z,-3.30
2023-11-28T02:12:26.096Z,-3.40
2023-11-28T02:14:54.372Z,-3.40
2023-11-28T02:17:21.756Z,-3.40
2023-11-28T02:19:52.508Z,-3.40
2023-11-28T02:22:20.269Z,-3.50
2023-11-28T02:24:54.563Z,-3.60
2023-11-28T02:27:22.223Z,-3.50
2023-11-28T02:29:49.579Z,-3.40
2023-11-28T02:32:17.167Z,-3.50
2023-11-28T02:34:44.838Z,-3.60
2023-11-28T02:37:12.567Z,-3.60
2023-11-28T02:39:40.133Z,-3.80
2023-11-28T02:42:07.598Z,-3.90
2023-11-28T02:44:35.044Z,-3.90
2023-11-28T02:47:02.650Z,-3.90
2023-11-28T02:49:30.104Z,-3.90
2023-11-28T02:51:57.444Z,-3.90
2023-11-28T02:54:25.848Z,-3.90
2023-11-28T02:56:55.196Z,-3.90
2023-11-28T02:59:22.502Z,-3.90
2023-11-28T03:01:56.033Z,-3.90
2023-11-28T03:04:24.077Z,-3.90
2023-11-28T03:06:52.301Z,-4.00
2023-11-28T03:09:20.667Z,-4.10
2023-11-28T03:11:48.404Z,-4.10
2023-11-28T03:14:15.811Z,-4.10
2023-11-28T03:16:43.229Z,-4.10
2023-11-28T03:19:12.591Z,-4.10
2023-11-28T03:21:40.547Z,-4.00
2023-11-28T03:24:09.301Z,-4.10
2023-11-28T03:26:36.792Z,-4.20
2023-11-28T03:29:04.572Z,-4.20
2023-11-28T03:31:32.248Z,-4.20
2023-11-28T03:33:59.858Z,-4.10
2023-11-28T03:36:27.733Z,-4.10
2023-11-28T03:38:56.003Z,-4.10
2023-11-28T03:41:23.562Z,-4.10
2023-11-28T03:43:52.568Z,-4.20
2023-11-28T03:46:20.610Z,-4.20
2023-11-28T03:48:48.447Z,-4.20
2023-11-28T03:51:17.206Z,-4.30
2023-11-28T03:53:45.019Z,-4.30
2023-11-28T03:56:14.048Z,-4.40
2023-11-28T03:58:41.908Z,-4.40
2023-11-28T04:01:09.693Z,-4.40
2023-11-28T04:03:37.817Z,-4.40
2023-11-28T04:06:07.161Z,-4.40
2023-11-28T04:08:35.357Z,-4.40
2023-11-28T04:11:03.515Z,-4.40
2023-11-28T04:13:31.744Z,-4.40
2023-11-28T04:16:00.159Z,-4.30
2023-11-28T04:18:32.310Z,-4.20
2023-11-28T04:21:00.607Z,-4.20
2023-11-28T04:23:27.848Z,-4.20
2023-11-28T04:25:55.658Z,-4.30
2023-11-28T04:28:22.983Z,-4.30
2023-11-28T04:30:51.231Z,-4.30
2023-11-28T04:33:19.445Z,-4.30
2023-11-28T04:35:46.892Z,-4.40
2023-11-28T04:38:14.249Z,-4.40
2023-11-28T04:40:41.918Z,-4.40
2023-11-28T04:43:09.833Z,-4.40
2023-11-28T04:45:37.742Z,-4.50
2023-11-28T04:48:05.433Z,-4.40
2023-11-28T04:50:33.575Z,-4.40
2023-11-28T04:53:00.979Z,-4.50
2023-11-28T04:55:29.471Z,-4.60
2023-11-28T04:57:57.387Z,-4.60
2023-11-28T05:00:24.568Z,-4.60
2023-11-28T05:02:53.162Z,-4.60
2023-11-28T05:05:20.929Z,-4.60
2023-11-28T05:07:48.615Z,-4.70
2023-11-28T05:10:16.863Z,-4.70
2023-11-28T05:12:45.388Z,-4.70
2023-11-28T05:15:13.594Z,-4.70
2023-11-28T05:17:41.866Z,-4.80
2023-11-28T05:20:11.213Z,-4.80
2023-11-28T05:22:40.215Z,-4.80
2023-11-28T05:25:08.125Z,-4.80
2023-11-28T05:27:36.547Z,-4.80
2023-11-28T05:30:04.293Z,-4.80
2023-11-28T05:32:32.110Z,-5.00
2023-11-28T05:34:59.820Z,-5.00
2023-11-28T05:37:27.192Z,-5.00
2023-11-28T05:39:54.538Z,-5.10
2023-11-28T05:42:22.343Z,-5.00
2023-11-28T05:44:50.832Z,-5.00
2023-11-28T05:47:20.102Z,-5.00
2023-11-28T05:49:48.471Z,-5.00
2023-11-28T05:52:16.609Z,-5.10
2023-11-28T05:54:44.577Z,-5.00
2023-11-28T05:57:12.537Z,-5.00
2023-11-28T05:59:39.883Z,-4.90
2023-11-28T06:02:11.790Z,-4.90
2023-11-28T06:04:39.759Z,-4.90
2023-11-28T06:07:08.035Z,-5.00
2023-11-28T06:09:35.570Z,-5.00
2023-11-28T06:12:04.822Z,-5.00
2023-11-28T06:14:35.009Z,-5.00
2023-11-28T06:17:02.583Z,-5.00
2023-11-28T06:19:31.362Z,-4.90
2023-11-28T06:21:59.168Z,-4.90
2023-11-28T06:24:26.647Z,-4.90
2023-11-28T06:26:55.206Z,-4.90
2023-11-28T06:29:23.425Z,-4.90
2023-11-28T06:31:51.898Z,-4.90
2023-11-28T06:34:20.001Z,-5.00
2023-11-28T06:36:49.974Z,-5.00
2023-11-28T06:39:20.086Z,-5.00
2023-11-28T06:41:51.712Z,-5.00
2023-11-28T06:44:22.252Z,-5.10
2023-11-28T06:46:49.749Z,-5.10
2023-11-28T06:49:17.312Z,-5.10
2023-11-28T06:51:45.158Z,-5.00
2023-11-28T06:54:13.230Z,-5.00
2023-11-28T06:56:41.005Z,-5.00
2023-11-28T06:59:08.293Z,-4.90
2023-11-28T07:01:36.168Z,-4.90
2023-11-28T07:04:03.971Z,-4.90
2023-11-28T07:06:32.214Z,-4.90
2023-11-28T07:09:00.015Z,-4.80
2023-11-28T07:11:27.292Z,-4.70
2023-11-28T07:13:56.042Z,-4.70
2023-11-28T07:16:24.469Z,-4.50
2023-11-28T07:18:52.415Z,-4.40
2023-11-28T07:21:20.912Z,-4.40
2023-11-28T07:23:49.058Z,-4.30
2023-11-28T07:26:17.232Z,-4.30
2023-11-28T07:28:44.831Z,-4.10
2023-11-28T07:31:15.400Z,-4.10
2023-11-28T07:33:43.144Z,-4.10
2023-11-28T07:36:13.066Z,-4.00
2023-11-28T07:38:44.612Z,-3.90
2023-11-28T07:41:18.419Z,-3.90
2023-11-28T07:43:45.885Z,-3.80
2023-11-28T07:46:13.941Z,-3.70
2023-11-28T07:48:43.316Z,-3.60
2023-11-28T07:51:11.232Z,-3.60
2023-11-28T07:53:38.930Z,-3.40
2023-11-28T07:56:07.360Z,-3.30
2023-11-28T07:58:35.767Z,-3.30
2023-11-28T08:01:03.113Z,-3.20
2023-11-28T08:03:30.811Z,-3.20
2023-11-28T08:05:58.599Z,-3.20
2023-11-28T08:08:26.114Z,-3.20
2023-11-28T08:10:53.854Z,-3.20
2023-11-28T08:13:22.989Z,-3.30
2023-11-28T08:15:53.979Z,-3.10
2023-11-28T08:18:21.689Z,-2.90
2023-11-28T08:20:49.640Z,-2.80
2023-11-28T08:23:17.219Z,-2.70
2023-11-28T08:25:44.490Z,-2.80
2023-11-28T08:28:12.748Z,-2.70
2023-11-28T08:30:40.147Z,-2.60
2023-11-28T08:33:07.413Z,-2.50
2023-11-28T08:35:35.145Z,-2.40
2023-11-28T08:38:02.644Z,-2.30
2023-11-28T08:40:30.971Z,-2.30
2023-11-28T08:42:58.911Z,-2.10
2023-11-28T08:45:26.920Z,-2.10
2023-11-28T08:47:54.485Z,-2.10
2023-11-28T08:50:22.112Z,-2.10
2023-11-28T08:52:50.047Z,-2.10
2023-11-28T08:55:17.703Z,-2.00
2023-11-28T08:57:46.194Z,-2.00
2023-11-28T09:00:16.863Z,-2.00
2023-11-28T09:02:46.743Z,-2.00
2023-11-28T09:05:16.355Z,-2.00
2023-11-28T09:07:45.315Z,-2.00
2023-11-28T09:10:13.478Z,-1.90
2023-11-28T09:12:41.085Z,-1.90
2023-11-28T09:15:09.392Z,-1.80
2023-11-28T09:17:38.217Z,-1.80
2023-11-28T09:20:06.686Z,-1.70
2023-11-28T09:22:34.831Z,-1.60
2023-11-28T09:25:02.723Z,-1.60
2023-11-28T09:27:30.808Z,-1.60
2023-11-28T09:29:58.832Z,-1.40
2023-11-28T09:32:27.440Z,-1.40
2023-11-28T09:34:55.148Z,-1.30
2023-11-28T09:37:24.159Z,-1.30
2023-11-28T09:39:51.982Z,-1.30
2023-11-28T09:42:23.769Z,-1.30
2023-11-28T09:44:53.985Z,-1.30
2023-11-28T09:47:26.049Z,-1.30
2023-11-28T09:49:59.102Z,-1.40
2023-11-28T09:52:31.418Z,-1.30
2023-11-28T09:55:01.027Z,-1.40
2023-11-28T09:57:35.812Z,-1.30
2023-11-28T10:00:06.585Z,-1.30
2023-11-28T10:02:34.653Z,-1.30
2023-11-28T10:05:02.291Z,-1.30
2023-11-28T10:07:36.970Z,-1.30
2023-11-28T10:10:13.922Z,-1.30
2023-11-28T10:12:41.727Z,-1.30
2023-11-28T10:15:12.064Z,-1.30
2023-11-28T10:17:39.864Z,-1.30
2023-11-28T10:20:09.471Z,-1.20
2023-11-28T10:22:39.239Z,-1.20
2023-11-28T10:25:12.792Z,-1.10
2023-11-28T10:27:45.508Z,-1.20
2023-11-28T10:30:17.730Z,-1.10
2023-11-28T10:32:45.226Z,-1.10
2023-11-28T10:35:12.688Z,-1.00
2023-11-28T10:37:42.194Z,-0.90
2023-11-28T10:40:21.028Z,-0.90
2023-11-28T10:42:50.530Z,-0.90
2023-11-28T10:45:20.776Z,-0.80
2023-11-28T10:47:48.261Z,-0.80
2023-11-28T10:50:15.998Z,-0.70
2023-11-28T10:52:48.598Z,-0.70
2023-11-28T10:55:25.752Z,-0.60
2023-11-28T10:58:03.995Z,-0.60
2023-11-28T11:00:41.465Z,-0.60
2023-11-28T11:03:11.527Z,-0.50
2023-11-28T11:05:39.083Z,-0.50
2023-11-28T11:08:06.945Z,-0.50
2023-11-28T11:10:34.605Z,-0.40
2023-11-28T11:13:29.377Z,-0.30
2023-11-28T11:16:08.996Z,-0.40
2023-11-28T11:18:43.727Z,-0.50
2023-11-28T11:21:36.373Z,-0.70
2023-11-28T11:24:04.152Z,-0.70
2023-11-28T11:26:42.419Z,-0.60
2023-11-28T11:29:28.432Z,-0.60
2023-11-28T11:32:01.806Z,-0.50
2023-11-28T11:34:51.317Z,-0.60
2023-11-28T11:37:32.189Z,-0.60
2023-11-28T11:40:03.455Z,-0.60
2023-11-28T11:42:36.188Z,-0.50
2023-11-28T11:45:07.836Z,-0.30
2023-11-28T11:47:40.696Z,-0.20
2023-11-28T11:50:09.907Z,-0.20
2023-11-28T11:52:39.435Z,-0.30
2023-11-28T11:55:13.992Z,-0.20
2023-11-28T11:57:46.618Z,-0.10
2023-11-28T12:00:17.420Z,0.00
2023-11-28T12:02:46.323Z,0.00
2023-11-28T12:05:15.693Z,0.00
2023-11-28T12:07:44.877Z,-0.10
2023-11-28T12:10:14.624Z,0.00
2023-11-28T12:12:43.051Z,0.00
2023-11-28T12:15:14.913Z,0.10
2023-11-28T12:17:43.338Z,0.10
2023-11-28T12:20:12.303Z,0.00
2023-11-28T12:22:41.597Z,-0.10
2023-11-28T12:25:20.068Z,-0.10
2023-11-28T12:27:47.971Z,-0.10
2023-11-28T12:30:16.115Z,-0.10
2023-11-28T12:32:44.098Z,-0.20
2023-11-28T12:35:12.640Z,-0.20
2023-11-28T12:37:39.947Z,-0.20
2023-11-28T12:40:11.412Z,-0.10
2023-11-28T12:42:48.098Z,-0.10
2023-11-28T12:45:19.185Z,-0.10
2023-11-28T12:47:48.470Z,-0.20
2023-11-28T12:50:16.660Z,-0.30
2023-11-28T12:52:44.904Z,-0.30
2023-11-28T12:55:13.066Z,-0.20
2023-11-28T12:57:40.871Z,-0.20
2023-11-28T13:00:08.905Z,-0.10
2023-11-28T13:02:36.857Z,-0.10
2023-11-28T13:05:05.658Z,-0.10
2023-11-28T13:07:38.654Z,-0.10
2023-11-28T13:10:14.271Z,-0.10
2023-11-28T13:12:43.221Z,-0.20
2023-11-28T13:15:12.709Z,-0.10
2023-11-28T13:17:40.677Z,-0.20
2023-11-28T13:20:09.539Z,-0.20
2023-11-28T13:22:38.793Z,-0.20
2023-11-28T13:25:07.214Z,-0.20
2023-11-28T13:27:36.788Z,-0.20
2023-11-28T13:30:06.688Z,-0.20
2023-11-28T13:32:34.276Z,-0.20
2023-11-28T13:35:02.876Z,-0.30
2023-11-28T13:37:30.994Z,-0.30
2023-11-28T13:40:00.531Z,-0.20
2023-11-28T13:42:28.282Z,-0.20
2023-11-28T13:44:56.592Z,-0.20
2023-11-28T13:47:23.980Z,-0.20
2023-11-28T13:49:53.279Z,-0.30
2023-11-28T13:52:20.683Z,-0.30
2023-11-28T13:54:48.910Z,-0.20
2023-11-28T13:57:16.086Z,-0.30
2023-11-28T13:59:43.497Z,-0.20
2023-11-28T14:02:10.935Z,-0.20
2023-11-28T14:04:38.319Z,-0.20
2023-11-28T14:07:05.837Z,-0.10
2023-11-28T14:09:33.118Z,0.00
2023-11-28T14:12:01.261Z,-0.10
2023-11-28T14:14:34.636Z,-0.10
2023-11-28T14:17:09.184Z,-0.20
2023-11-28T14:19:37.805Z,-0.20
2023-11-28T14:22:05.827Z,-0.10
2023-11-28T14:24:33.227Z,-0.10
2023-11-28T14:27:01.114Z,-0.10
2023-11-28T14:29:29.305Z,-0.30
2023-11-28T14:31:56.731Z,-0.30
2023-11-28T14:34:25.358Z,-0.40
2023-11-28T14:36:53.177Z,-0.40
2023-11-28T14:39:20.988Z,-0.50
2023-11-28T14:41:48.405Z,-0.50
2023-11-28T14:44:16.287Z,-0.60
2023-11-28T14:46:43.675Z,-0.60
2023-11-28T14:49:11.098Z,-0.70
2023-11-28T14:51:38.628Z,-0.70
2023-11-28T14:54:12.634Z,-0.70
2023-11-28T14:56:40.932Z,-0.80
2023-11-28T14:59:10.625Z,-0.80
2023-11-28T15:01:39.952Z,-0.80
2023-11-28T15:04:07.792Z,-0.90
2023-11-28T15:06:35.189Z,-0.80
2023-11-28T15:09:04.902Z,-0.80
2023-11-28T15:11:32.983Z,-0.80
2023-11-28T15:14:00.450Z,-0.80
2023-11-28T15:16:28.430Z,-0.90
2023-11-28T15:18:55.931Z,-1.00
2023-11-28T15:21:23.383Z,-1.00
2023-11-28T15:23:51.776Z,-1.10
2023-11-28T15:26:22.261Z,-1.20
2023-11-28T15:28:51.682Z,-1.20
2023-11-28T15:31:19.214Z,-1.20
2023-11-28T15:33:46.805Z,-1.20
2023-11-28T15:36:14.481Z,-1.30
2023-11-28T15:38:42.995Z,-1.30
2023-11-28T15:41:10.479Z,-1.30
2023-11-28T15:43:37.888Z,-1.20
2023-11-28T15:46:05.253Z,-1.30
2023-11-28T15:48:32.594Z,-1.40
2023-11-28T15:51:00.566Z,-1.40
2023-11-28T15:53:29.092Z,-1.50
2023-11-28T15:55:56.415Z,-1.50
2023-11-28T15:58:23.736Z,-1.50
2023-11-28T16:00:51.333Z,-1.40
2023-11-28T16:03:18.852Z,-1.50
2023-11-28T16:05:47.819Z,-1.40
2023-11-28T16:08:17.610Z,-1.40
2023-11-28T16:10:44.935Z,-1.40
2023-11-28T16:13:16.733Z,-1.40
2023-11-28T16:15:44.900Z,-1.50
2023-11-28T16:18:12.640Z,-1.50
2023-11-28T16:20:40.545Z,-1.50
2023-11-28T16:23:08.228Z,-1.50
2023-11-28T16:25:35.615Z,-1.50
2023-11-28T16:28:04.038Z,-1.50
2023-11-28T16:30:31.516Z,-1.50
2023-11-28T16:32:59.026Z,-1.60
2023-11-28T16:35:28.065Z,-1.60
2023-11-28T16:37:56.914Z,-1.70
2023-11-28T16:40:25.108Z,-1.70
2023-11-28T16:42:54.048Z,-1.80
2023-11-28T16:45:22.482Z,-1.80
2023-11-28T16:47:51.308Z,-1.70
2023-11-28T16:50:19.808Z,-1.80
2023-11-28T16:52:47.014Z,-1.90
2023-11-28T16:55:20.159Z,-1.90
2023-11-28T16:57:48.282Z,-2.00
2023-11-28T17:00:17.188Z,-2.10
2023-11-28T17:02:44.663Z,-2.10
2023-11-28T17:05:12.847Z,-2.10
2023-11-28T17:07:43.623Z,-2.20
2023-11-28T17:10:10.893Z,-2.10
2023-11-28T17:12:38.129Z,-2.10
2023-11-28T17:15:06.057Z,-2.00
2023-11-28T17:17:34.002Z,-1.90
2023-11-28T17:20:01.468Z,-1.80
2023-11-28T17:22:29.310Z,-1.80
2023-11-28T17:24:57.557Z,-1.70
2023-11-28T17:27:26.474Z,-1.60
2023-11-28T17:29:53.787Z,-1.60
2023-11-28T17:32:22.125Z,-1.60
2023-11-28T17:34:50.670Z,-1.40
2023-11-28T17:37:18.856Z,-1.30
2023-11-28T17:39:47.360Z,-1.30
2023-11-28T17:42:14.832Z,-1.30
2023-11-28T17:44:43.207Z,-1.20
2023-11-28T17:47:10.683Z,-1.20
2023-11-28T17:49:39.183Z,-1.10
2023-11-28T17:52:07.065Z,-1.00
2023-11-28T17:54:34.739Z,-1.00
2023-11-28T17:57:02.402Z,-0.90
2023-11-28T17:59:31.133Z,-1.00
2023-11-28T18:02:00.347Z,-1.10
2023-11-28T18:04:28.156Z,-1.10
2023-11-28T18:06:59.554Z,-1.20
2023-11-28T18:09:27.269Z,-1.30
2023-11-28T18:11:54.463Z,-1.40
2023-11-28T18:14:22.623Z,-1.40
2023-11-28T18:16:50.216Z,-1.30
2023-11-28T18:19:17.615Z,-1.30
2023-11-28T18:21:46.494Z,-1.20
2023-11-28T18:24:15.187Z,-1.10
2023-11-28T18:26:43.411Z,-1.00
2023-11-28T18:29:14.813Z,-0.90
2023-11-28T18:31:43.828Z,-0.90
2023-11-28T18:34:11.263Z,-0.90
2023-11-28T18:36:41.507Z,-0.90
2023-11-28T18:39:09.648Z,-1.10
2023-11-28T18:41:42.702Z,-1.10
2023-11-28T18:44:13.647Z,-1.00
2023-11-28T18:46:42.925Z,-1.00
2023-11-28T18:49:10.471Z,-0.90
2023-11-28T18:51:38.441Z,-0.90
2023-11-28T18:54:06.323Z,-0.90
2023-11-28T18:56:34.999Z,-0.90
2023-11-28T18:59:02.823Z,-0.90
2023-11-28T19:01:33.538Z,-0.90
2023-11-28T19:04:01.103Z,-0.90
2023-11-28T19:06:30.946Z,-0.90
2023-11-28T19:08:59.237Z,-0.80
2023-11-28T19:11:29.938Z,-0.70
2023-11-28T19:14:04.643Z,-0.70
2023-11-28T19:16:35.273Z,-0.80
2023-11-28T19:19:02.909Z,-0.70
2023-11-28T19:21:30.227Z,-0.70
2023-11-28T19:23:57.570Z,-0.80
2023-11-28T19:26:24.997Z,-0.80
2023-11-28T19:28:52.315Z,-0.80
2023-11-28T19:31:19.983Z,-0.80
2023-11-28T19:33:47.945Z,-0.90
2023-11-28T19:36:15.185Z,-0.80
2023-11-28T19:38:43.821Z,-0.60
2023-11-28T19:41:13.714Z,-0.60
2023-11-28T19:43:41.108Z,-0.60
2023-11-28T19:46:09.490Z,-0.70
2023-11-28T19:48:45.030Z,-0.70
2023-11-28T19:51:13.455Z,-0.70
2023-11-28T19:53:44.764Z,-0.70
2023-11-28T19:56:12.700Z,-0.60
2023-11-28T19:58:40.835Z,-0.60
2023-11-28T20:01:09.306Z,-0.50
2023-11-28T20:03:39.744Z,-0.50
2023-11-28T20:06:07.993Z,-0.40
2023-11-28T20:08:36.811Z,-0.40
2023-11-28T20:11:04.725Z,-0.40
2023-11-28T20:13:32.450Z,-0.50
2023-11-28T20:16:02.768Z,-0.40
2023-11-28T20:18:31.389Z,-0.30
2023-11-28T20:20:58.751Z,-0.30
2023-11-28T20:23:25.975Z,-0.30
2023-11-28T20:25:55.113Z,-0.20
2023-11-28T20:28:23.312Z,-0.20
2023-11-28T20:30:51.600Z,-0.10
2023-11-28T20:33:19.107Z,-0.10
2023-11-28T20:35:46.799Z,-0.10
2023-11-28T20:38:14.805Z,-0.10
2023-11-28T20:40:42.073Z,-0.10
2023-11-28T20:43:12.254Z,-0.10
2023-11-28T20:45:39.766Z,-0.10
2023-11-28T20:48:07.395Z,-0.10
2023-11-28T20:50:34.866Z,-0.10
2023-11-28T20:53:03.787Z,-0.20
2023-11-28T20:55:31.294Z,-0.40
2023-11-28T20:58:02.130Z,-0.50
2023-11-28T21:00:30.538Z,-0.50
2023-11-28T21:02:58.130Z,-0.60
2023-11-28T21:05:25.706Z,-0.70
2023-11-28T21:07:53.077Z,-0.70
2023-11-28T21:10:20.535Z,-0.70
2023-11-28T21:12:50.544Z,-0.60
2023-11-28T21:15:19.456Z,-0.60
2023-11-28T21:17:46.949Z,-0.60
2023-11-28T21:20:14.697Z,-0.70
2023-11-28T21:22:42.679Z,-0.60
2023-11-28T21:25:10.132Z,-0.70
2023-11-28T21:27:37.375Z,-0.50
2023-11-28T21:30:05.504Z,-0.50
2023-11-28T21:32:32.783Z,-0.50
2023-11-28T21:35:00.095Z,-0.60
2023-11-28T21:37:28.968Z,-0.70
2023-11-28T21:39:56.304Z,-0.70
2023-11-28T21:42:23.638Z,-0.60
2023-11-28T21:44:51.368Z,-0.50
2023-11-28T21:47:22.692Z,-0.50
2023-11-28T21:49:54.259Z,-0.50
2023-11-28T21:52:26.207Z,-0.40
2023-11-28T21:54:54.265Z,-0.40
2023-11-28T21:57:21.742Z,-0.50
2023-11-28T21:59:49.020Z,-0.40
2023-11-28T22:02:16.717Z,-0.40
2023-11-28T22:04:44.361Z,-0.30
2023-11-28T22:07:11.959Z,-0.30
2023-11-28T22:09:39.203Z,-0.30
2023-11-28T22:12:07.925Z,-0.30
2023-11-28T22:14:35.735Z,-0.30
2023-11-28T22:17:04.028Z,-0.20
2023-11-28T22:19:31.683Z,-0.20
2023-11-28T22:21:59.014Z,-0.20
2023-11-28T22:24:26.545Z,-0.20
2023-11-28T22:26:54.690Z,-0.20
2023-11-28T22:29:22.923Z,-0.30
2023-11-28T22:31:51.426Z,-0.30
2023-11-28T22:34:19.240Z,-0.30
2023-11-28T22:36:47.111Z,-0.30
2023-11-28T22:39:14.489Z,-0.30
2023-11-28T22:41:42.095Z,-0.30
2023-11-28T22:44:11.105Z,-0.30
2023-11-28T22:46:39.702Z,-0.40
2023-11-28T22:49:07.133Z,-0.40
2023-11-28T22:51:35.023Z,-0.60
2023-11-28T22:54:02.850Z,-0.70
2023-11-28T22:56:31.496Z,-0.90
2023-11-28T22:59:02.497Z,-0.90
2023-11-28T23:01:30.887Z,-0.90
2023-11-28T23:04:00.516Z,-0.90
2023-11-28T23:06:28.434Z,-1.00
2023-11-28T23:08:56.663Z,-1.10
2023-11-28T23:11:24.771Z,-1.30
2023-11-28T23:13:52.241Z,-1.20
2023-11-28T23:16:19.898Z,-1.20
2023-11-28T23:18:47.277Z,-1.20
2023-11-28T23:21:14.644Z,-1.20
2023-11-28T23:23:42.082Z,-1.30
2023-11-28T23:26:09.495Z,-1.30
2023-11-28T23:28:37.003Z,-1.30
2023-11-28T23:31:04.554Z,-1.40
2023-11-28T23:33:31.888Z,-1.40
2023-11-28T23:35:59.159Z,-1.30
2023-11-28T23:38:26.411Z,-1.40
2023-11-28T23:40:54.132Z,-1.40
2023-11-28T23:43:21.573Z,-1.40
2023-11-28T23:45:49.412Z,-1.30
2023-11-28T23:48:16.761Z,-1.30
2023-11-28T23:50:44.703Z,-1.40
2023-11-28T23:53:12.560Z,-1.60
2023-11-28T23:55:39.837Z,-1.70
2023-11-28T23:58:07.050Z,-1.80
